sensor_id;sensor_type;location;lat;lon;timestamp;P1;durP1;ratioP1;P2;durP2;ratioP2
40116;SDS011;25829;50.228;18.936;2023-04-15T00:04:08;5.10;;;3.53;;
40116;SDS011;25829;50.228;18.936;2023-04-15T00:07:09;4.27;;;3.33;;
40116;SDS011;25829;50.228;18.936;2023-04-15T00:10:10;3.73;;;3.20;;
40116;SDS011;25829;50.228;18.936;2023-04-15T00:13:11;4.03;;;3.40;;
40116;SDS011;25829;50.228;18.936;2023-04-15T00:16:11;5.97;;;3.83;;
40116;SDS011;25829;50.228;18.936;2023-04-15T00:19:12;5.13;;;4.13;;
40116;SDS011;25829;50.228;18.936;2023-04-15T00:22:13;6.53;;;3.83;;
40116;SDS011;25829;50.228;18.936;2023-04-15T00:25:14;4.77;;;3.37;;
40116;SDS011;25829;50.228;18.936;2023-04-15T00:28:15;6.30;;;3.80;;
40116;SDS011;25829;50.228;18.936;2023-04-15T00:31:17;6.97;;;3.20;;
40116;SDS011;25829;50.228;18.936;2023-04-15T00:34:17;4.10;;;3.60;;
40116;SDS011;25829;50.228;18.936;2023-04-15T00:37:18;4.27;;;3.40;;
40116;SDS011;25829;50.228;18.936;2023-04-15T00:40:20;5.87;;;3.87;;
40116;SDS011;25829;50.228;18.936;2023-04-15T00:43:21;9.90;;;6.50;;
40116;SDS011;25829;50.228;18.936;2023-04-15T00:46:22;7.53;;;5.10;;
40116;SDS011;25829;50.228;18.936;2023-04-15T00:49:23;8.43;;;6.27;;
40116;SDS011;25829;50.228;18.936;2023-04-15T00:52:24;7.27;;;6.30;;
40116;SDS011;25829;50.228;18.936;2023-04-15T00:55:26;9.03;;;5.90;;
40116;SDS011;25829;50.228;18.936;2023-04-15T00:58:27;7.47;;;4.93;;
40116;SDS011;25829;50.228;18.936;2023-04-15T01:01:28;5.50;;;4.37;;
40116;SDS011;25829;50.228;18.936;2023-04-15T01:04:31;4.67;;;4.17;;
40116;SDS011;25829;50.228;18.936;2023-04-15T01:07:32;5.53;;;4.10;;
40116;SDS011;25829;50.228;18.936;2023-04-15T01:10:33;7.20;;;4.73;;
40116;SDS011;25829;50.228;18.936;2023-04-15T01:13:35;7.67;;;4.50;;
40116;SDS011;25829;50.228;18.936;2023-04-15T01:16:36;5.67;;;4.53;;
40116;SDS011;25829;50.228;18.936;2023-04-15T01:19:39;5.90;;;4.70;;
40116;SDS011;25829;50.228;18.936;2023-04-15T01:22:41;6.43;;;4.50;;
40116;SDS011;25829;50.228;18.936;2023-04-15T01:25:43;5.83;;;4.60;;
40116;SDS011;25829;50.228;18.936;2023-04-15T01:28:46;6.00;;;4.70;;
40116;SDS011;25829;50.228;18.936;2023-04-15T01:31:53;7.30;;;5.23;;
40116;SDS011;25829;50.228;18.936;2023-04-15T01:34:55;5.63;;;4.43;;
40116;SDS011;25829;50.228;18.936;2023-04-15T01:38:00;8.03;;;5.17;;
40116;SDS011;25829;50.228;18.936;2023-04-15T01:41:05;7.03;;;4.90;;
40116;SDS011;25829;50.228;18.936;2023-04-15T01:44:07;5.57;;;4.87;;
40116;SDS011;25829;50.228;18.936;2023-04-15T01:47:08;7.63;;;4.90;;
40116;SDS011;25829;50.228;18.936;2023-04-15T01:50:09;5.83;;;4.60;;
40116;SDS011;25829;50.228;18.936;2023-04-15T01:53:10;5.63;;;3.97;;
40116;SDS011;25829;50.228;18.936;2023-04-15T01:56:11;6.47;;;5.10;;
40116;SDS011;25829;50.228;18.936;2023-04-15T01:59:12;5.83;;;5.10;;
40116;SDS011;25829;50.228;18.936;2023-04-15T02:02:14;6.77;;;5.00;;
40116;SDS011;25829;50.228;18.936;2023-04-15T02:05:15;6.37;;;4.60;;
40116;SDS011;25829;50.228;18.936;2023-04-15T02:08:20;8.40;;;4.87;;
40116;SDS011;25829;50.228;18.936;2023-04-15T02:11:21;6.73;;;4.93;;
40116;SDS011;25829;50.228;18.936;2023-04-15T02:14:22;6.80;;;4.43;;
40116;SDS011;25829;50.228;18.936;2023-04-15T02:17:23;6.07;;;4.80;;
40116;SDS011;25829;50.228;18.936;2023-04-15T02:20:24;6.23;;;4.90;;
40116;SDS011;25829;50.228;18.936;2023-04-15T02:23:25;7.00;;;4.90;;
40116;SDS011;25829;50.228;18.936;2023-04-15T02:26:25;5.43;;;4.53;;
40116;SDS011;25829;50.228;18.936;2023-04-15T02:29:28;6.13;;;5.23;;
40116;SDS011;25829;50.228;18.936;2023-04-15T02:32:30;6.57;;;5.10;;
40116;SDS011;25829;50.228;18.936;2023-04-15T02:35:31;5.27;;;4.67;;
40116;SDS011;25829;50.228;18.936;2023-04-15T02:38:32;7.27;;;4.50;;
40116;SDS011;25829;50.228;18.936;2023-04-15T02:41:33;11.33;;;5.23;;
40116;SDS011;25829;50.228;18.936;2023-04-15T02:44:37;6.00;;;4.60;;
40116;SDS011;25829;50.228;18.936;2023-04-15T02:47:39;5.87;;;4.30;;
40116;SDS011;25829;50.228;18.936;2023-04-15T02:50:41;6.40;;;4.57;;
40116;SDS011;25829;50.228;18.936;2023-04-15T02:53:44;6.93;;;4.97;;
40116;SDS011;25829;50.228;18.936;2023-04-15T02:56:46;5.60;;;4.80;;
40116;SDS011;25829;50.228;18.936;2023-04-15T02:59:46;7.07;;;4.47;;
40116;SDS011;25829;50.228;18.936;2023-04-15T03:02:47;6.20;;;5.10;;
40116;SDS011;25829;50.228;18.936;2023-04-15T03:05:58;6.33;;;4.63;;
40116;SDS011;25829;50.228;18.936;2023-04-15T03:08:59;5.87;;;5.10;;
40116;SDS011;25829;50.228;18.936;2023-04-15T03:12:06;6.37;;;5.07;;
40116;SDS011;25829;50.228;18.936;2023-04-15T03:15:07;6.70;;;4.63;;
40116;SDS011;25829;50.228;18.936;2023-04-15T03:18:12;5.20;;;4.23;;
40116;SDS011;25829;50.228;18.936;2023-04-15T03:21:14;5.40;;;4.47;;
40116;SDS011;25829;50.228;18.936;2023-04-15T03:24:15;6.63;;;4.70;;
40116;SDS011;25829;50.228;18.936;2023-04-15T03:27:17;5.27;;;4.77;;
40116;SDS011;25829;50.228;18.936;2023-04-15T03:30:19;5.47;;;4.23;;
40116;SDS011;25829;50.228;18.936;2023-04-15T03:33:20;4.97;;;4.37;;
40116;SDS011;25829;50.228;18.936;2023-04-15T03:36:20;6.50;;;4.50;;
40116;SDS011;25829;50.228;18.936;2023-04-15T03:39:21;5.97;;;4.60;;
40116;SDS011;25829;50.228;18.936;2023-04-15T03:42:22;6.23;;;4.70;;
40116;SDS011;25829;50.228;18.936;2023-04-15T03:45:23;5.13;;;4.60;;
40116;SDS011;25829;50.228;18.936;2023-04-15T03:48:23;6.70;;;4.63;;
40116;SDS011;25829;50.228;18.936;2023-04-15T03:51:28;6.93;;;4.67;;
40116;SDS011;25829;50.228;18.936;2023-04-15T03:54:32;7.53;;;4.70;;
40116;SDS011;25829;50.228;18.936;2023-04-15T03:57:33;7.30;;;4.77;;
40116;SDS011;25829;50.228;18.936;2023-04-15T04:00:38;6.03;;;5.00;;
40116;SDS011;25829;50.228;18.936;2023-04-15T04:03:41;5.57;;;4.77;;
40116;SDS011;25829;50.228;18.936;2023-04-15T04:06:42;7.40;;;4.70;;
40116;SDS011;25829;50.228;18.936;2023-04-15T04:09:43;5.10;;;4.60;;
40116;SDS011;25829;50.228;18.936;2023-04-15T04:12:44;5.70;;;4.80;;
40116;SDS011;25829;50.228;18.936;2023-04-15T04:15:44;7.37;;;5.10;;
40116;SDS011;25829;50.228;18.936;2023-04-15T04:18:45;6.37;;;4.70;;
40116;SDS011;25829;50.228;18.936;2023-04-15T04:21:46;8.17;;;5.40;;
40116;SDS011;25829;50.228;18.936;2023-04-15T04:24:47;6.23;;;4.83;;
40116;SDS011;25829;50.228;18.936;2023-04-15T04:27:47;5.90;;;4.67;;
40116;SDS011;25829;50.228;18.936;2023-04-15T04:30:48;6.73;;;4.60;;
40116;SDS011;25829;50.228;18.936;2023-04-15T04:33:49;7.50;;;4.63;;
40116;SDS011;25829;50.228;18.936;2023-04-15T04:36:50;6.33;;;4.60;;
40116;SDS011;25829;50.228;18.936;2023-04-15T04:39:51;5.03;;;3.97;;
40116;SDS011;25829;50.228;18.936;2023-04-15T04:42:52;5.57;;;4.90;;
40116;SDS011;25829;50.228;18.936;2023-04-15T04:45:53;6.80;;;4.50;;
40116;SDS011;25829;50.228;18.936;2023-04-15T04:48:54;9.70;;;4.73;;
40116;SDS011;25829;50.228;18.936;2023-04-15T04:51:55;5.33;;;4.30;;
40116;SDS011;25829;50.228;18.936;2023-04-15T04:54:56;6.80;;;4.80;;
40116;SDS011;25829;50.228;18.936;2023-04-15T04:57:57;6.10;;;4.80;;
40116;SDS011;25829;50.228;18.936;2023-04-15T05:00:58;7.17;;;4.63;;
40116;SDS011;25829;50.228;18.936;2023-04-15T05:03:58;6.53;;;4.90;;
40116;SDS011;25829;50.228;18.936;2023-04-15T05:06:59;6.37;;;4.50;;
40116;SDS011;25829;50.228;18.936;2023-04-15T05:10:00;6.47;;;4.63;;
40116;SDS011;25829;50.228;18.936;2023-04-15T05:13:04;8.43;;;5.30;;
40116;SDS011;25829;50.228;18.936;2023-04-15T05:16:08;7.93;;;4.93;;
40116;SDS011;25829;50.228;18.936;2023-04-15T05:19:09;7.83;;;5.40;;
40116;SDS011;25829;50.228;18.936;2023-04-15T05:22:10;8.87;;;6.20;;
40116;SDS011;25829;50.228;18.936;2023-04-15T05:25:10;8.43;;;5.87;;
40116;SDS011;25829;50.228;18.936;2023-04-15T05:28:12;10.90;;;7.20;;
40116;SDS011;25829;50.228;18.936;2023-04-15T05:31:12;7.37;;;6.57;;
40116;SDS011;25829;50.228;18.936;2023-04-15T05:34:13;13.07;;;7.10;;
40116;SDS011;25829;50.228;18.936;2023-04-15T05:37:15;9.67;;;7.13;;
40116;SDS011;25829;50.228;18.936;2023-04-15T05:40:16;9.00;;;6.37;;
40116;SDS011;25829;50.228;18.936;2023-04-15T05:43:20;9.53;;;6.87;;
40116;SDS011;25829;50.228;18.936;2023-04-15T05:46:21;8.43;;;6.57;;
40116;SDS011;25829;50.228;18.936;2023-04-15T05:49:22;9.70;;;7.30;;
40116;SDS011;25829;50.228;18.936;2023-04-15T05:52:22;8.93;;;6.23;;
40116;SDS011;25829;50.228;18.936;2023-04-15T05:55:23;8.80;;;6.80;;
40116;SDS011;25829;50.228;18.936;2023-04-15T05:58:25;8.00;;;6.03;;
40116;SDS011;25829;50.228;18.936;2023-04-15T06:01:26;9.57;;;6.67;;
40116;SDS011;25829;50.228;18.936;2023-04-15T06:04:27;11.47;;;7.63;;
40116;SDS011;25829;50.228;18.936;2023-04-15T06:07:28;8.63;;;6.27;;
40116;SDS011;25829;50.228;18.936;2023-04-15T06:10:28;11.73;;;7.90;;
40116;SDS011;25829;50.228;18.936;2023-04-15T06:13:30;12.77;;;7.63;;
40116;SDS011;25829;50.228;18.936;2023-04-15T06:16:30;11.10;;;7.93;;
40116;SDS011;25829;50.228;18.936;2023-04-15T06:19:32;11.30;;;7.57;;
40116;SDS011;25829;50.228;18.936;2023-04-15T06:22:33;11.50;;;6.97;;
40116;SDS011;25829;50.228;18.936;2023-04-15T06:25:33;13.07;;;7.85;;
40116;SDS011;25829;50.228;18.936;2023-04-15T06:28:40;14.05;;;7.97;;
40116;SDS011;25829;50.228;18.936;2023-04-15T06:31:41;10.23;;;7.25;;
40116;SDS011;25829;50.228;18.936;2023-04-15T06:34:42;9.20;;;6.63;;
40116;SDS011;25829;50.228;18.936;2023-04-15T06:37:45;10.80;;;7.07;;
40116;SDS011;25829;50.228;18.936;2023-04-15T06:40:46;9.07;;;5.97;;
40116;SDS011;25829;50.228;18.936;2023-04-15T06:43:46;7.00;;;5.60;;
40116;SDS011;25829;50.228;18.936;2023-04-15T06:46:47;9.75;;;6.40;;
40116;SDS011;25829;50.228;18.936;2023-04-15T06:49:51;7.28;;;5.53;;
40116;SDS011;25829;50.228;18.936;2023-04-15T06:52:55;10.45;;;5.93;;
40116;SDS011;25829;50.228;18.936;2023-04-15T06:55:56;8.48;;;4.95;;
40116;SDS011;25829;50.228;18.936;2023-04-15T06:58:57;8.15;;;4.60;;
40116;SDS011;25829;50.228;18.936;2023-04-15T07:01:58;6.13;;;4.07;;
40116;SDS011;25829;50.228;18.936;2023-04-15T07:04:59;6.78;;;4.60;;
40116;SDS011;25829;50.228;18.936;2023-04-15T07:07:59;8.68;;;3.88;;
40116;SDS011;25829;50.228;18.936;2023-04-15T07:11:01;5.80;;;4.25;;
40116;SDS011;25829;50.228;18.936;2023-04-15T07:14:08;4.95;;;3.65;;
40116;SDS011;25829;50.228;18.936;2023-04-15T07:17:08;6.20;;;4.07;;
40116;SDS011;25829;50.228;18.936;2023-04-15T07:20:09;8.93;;;3.95;;
40116;SDS011;25829;50.228;18.936;2023-04-15T07:23:13;5.82;;;4.28;;
40116;SDS011;25829;50.228;18.936;2023-04-15T07:26:14;6.88;;;4.25;;
40116;SDS011;25829;50.228;18.936;2023-04-15T07:29:17;6.93;;;4.80;;
40116;SDS011;25829;50.228;18.936;2023-04-15T07:35:22;4.90;;;4.05;;
40116;SDS011;25829;50.228;18.936;2023-04-15T07:38:30;6.45;;;3.63;;
40116;SDS011;25829;50.228;18.936;2023-04-15T07:41:32;8.25;;;5.47;;
40116;SDS011;25829;50.228;18.936;2023-04-15T07:44:37;3.92;;;3.30;;
40116;SDS011;25829;50.228;18.936;2023-04-15T07:47:39;4.10;;;3.20;;
40116;SDS011;25829;50.228;18.936;2023-04-15T07:51:02;4.03;;;2.95;;
40116;SDS011;25829;50.228;18.936;2023-04-15T07:54:03;3.90;;;3.08;;
40116;SDS011;25829;50.228;18.936;2023-04-15T07:57:04;2.45;;;2.25;;
40116;SDS011;25829;50.228;18.936;2023-04-15T08:00:06;2.50;;;2.30;;
40116;SDS011;25829;50.228;18.936;2023-04-15T08:03:14;3.08;;;2.35;;
40116;SDS011;25829;50.228;18.936;2023-04-15T08:06:15;3.33;;;2.30;;
40116;SDS011;25829;50.228;18.936;2023-04-15T08:09:16;2.50;;;1.80;;
40116;SDS011;25829;50.228;18.936;2023-04-15T08:12:35;3.65;;;1.70;;
40116;SDS011;25829;50.228;18.936;2023-04-15T08:15:41;3.03;;;1.60;;
40116;SDS011;25829;50.228;18.936;2023-04-15T08:18:42;1.88;;;1.55;;
40116;SDS011;25829;50.228;18.936;2023-04-15T08:29:05;2.72;;;1.50;;
40116;SDS011;25829;50.228;18.936;2023-04-15T08:39:39;1.67;;;1.50;;
40116;SDS011;25829;50.228;18.936;2023-04-15T08:42:55;2.40;;;1.58;;
40116;SDS011;25829;50.228;18.936;2023-04-15T08:45:58;2.58;;;1.50;;
40116;SDS011;25829;50.228;18.936;2023-04-15T08:49:11;1.60;;;1.40;;
40116;SDS011;25829;50.228;18.936;2023-04-15T08:52:21;2.15;;;1.80;;
40116;SDS011;25829;50.228;18.936;2023-04-15T08:55:22;2.38;;;1.52;;
40116;SDS011;25829;50.228;18.936;2023-04-15T09:02:26;1.60;;;1.42;;
40116;SDS011;25829;50.228;18.936;2023-04-15T09:05:28;2.10;;;1.83;;
40116;SDS011;25829;50.228;18.936;2023-04-15T09:08:35;1.80;;;1.50;;
40116;SDS011;25829;50.228;18.936;2023-04-15T09:11:36;4.65;;;1.60;;
40116;SDS011;25829;50.228;18.936;2023-04-15T09:14:38;2.80;;;1.50;;
40116;SDS011;25829;50.228;18.936;2023-04-15T09:18:03;1.80;;;1.48;;
40116;SDS011;25829;50.228;18.936;2023-04-15T09:21:05;1.48;;;1.38;;
40116;SDS011;25829;50.228;18.936;2023-04-15T09:28:44;2.10;;;1.60;;
40116;SDS011;25829;50.228;18.936;2023-04-15T09:31:52;2.42;;;1.40;;
40116;SDS011;25829;50.228;18.936;2023-04-15T09:34:53;2.15;;;1.58;;
40116;SDS011;25829;50.228;18.936;2023-04-15T09:38:00;1.88;;;1.40;;
40116;SDS011;25829;50.228;18.936;2023-04-15T09:44:42;1.65;;;1.40;;
40116;SDS011;25829;50.228;18.936;2023-04-15T09:47:46;1.85;;;1.50;;
40116;SDS011;25829;50.228;18.936;2023-04-15T09:50:48;1.50;;;1.40;;
40116;SDS011;25829;50.228;18.936;2023-04-15T09:53:49;1.40;;;1.30;;
40116;SDS011;25829;50.228;18.936;2023-04-15T09:56:54;1.73;;;1.63;;
40116;SDS011;25829;50.228;18.936;2023-04-15T10:00:04;2.03;;;1.80;;
40116;SDS011;25829;50.228;18.936;2023-04-15T10:03:07;1.73;;;1.50;;
40116;SDS011;25829;50.228;18.936;2023-04-15T10:06:08;1.60;;;1.50;;
40116;SDS011;25829;50.228;18.936;2023-04-15T10:09:09;1.63;;;1.50;;
40116;SDS011;25829;50.228;18.936;2023-04-15T10:12:10;1.95;;;1.73;;
40116;SDS011;25829;50.228;18.936;2023-04-15T10:15:15;5.93;;;4.30;;
40116;SDS011;25829;50.228;18.936;2023-04-15T10:18:19;2.30;;;2.10;;
40116;SDS011;25829;50.228;18.936;2023-04-15T10:21:23;2.10;;;1.80;;
40116;SDS011;25829;50.228;18.936;2023-04-15T10:24:24;1.60;;;1.50;;
40116;SDS011;25829;50.228;18.936;2023-04-15T10:27:33;2.10;;;1.75;;
40116;SDS011;25829;50.228;18.936;2023-04-15T10:30:38;3.00;;;1.75;;
40116;SDS011;25829;50.228;18.936;2023-04-15T10:33:39;1.67;;;1.58;;
40116;SDS011;25829;50.228;18.936;2023-04-15T10:36:42;1.85;;;1.75;;
40116;SDS011;25829;50.228;18.936;2023-04-15T10:39:43;1.98;;;1.80;;
40116;SDS011;25829;50.228;18.936;2023-04-15T10:42:44;2.30;;;2.10;;
40116;SDS011;25829;50.228;18.936;2023-04-15T10:45:44;2.53;;;1.90;;
40116;SDS011;25829;50.228;18.936;2023-04-15T10:48:49;3.70;;;1.80;;
40116;SDS011;25829;50.228;18.936;2023-04-15T10:51:52;2.00;;;1.80;;
40116;SDS011;25829;50.228;18.936;2023-04-15T10:55:11;2.28;;;2.08;;
40116;SDS011;25829;50.228;18.936;2023-04-15T10:58:27;2.67;;;2.00;;
40116;SDS011;25829;50.228;18.936;2023-04-15T11:02:01;2.65;;;2.10;;
40116;SDS011;25829;50.228;18.936;2023-04-15T11:05:09;2.30;;;2.00;;
40116;SDS011;25829;50.228;18.936;2023-04-15T11:08:11;2.53;;;1.90;;
40116;SDS011;25829;50.228;18.936;2023-04-15T11:11:23;4.55;;;2.30;;
40116;SDS011;25829;50.228;18.936;2023-04-15T11:14:45;3.65;;;2.40;;
40116;SDS011;25829;50.228;18.936;2023-04-15T11:17:46;2.08;;;1.88;;
40116;SDS011;25829;50.228;18.936;2023-04-15T11:20:50;2.50;;;2.30;;
40116;SDS011;25829;50.228;18.936;2023-04-15T11:23:56;2.15;;;2.00;;
40116;SDS011;25829;50.228;18.936;2023-04-15T11:27:00;2.85;;;2.20;;
40116;SDS011;25829;50.228;18.936;2023-04-15T11:30:01;2.67;;;2.20;;
40116;SDS011;25829;50.228;18.936;2023-04-15T11:33:19;4.55;;;2.00;;
40116;SDS011;25829;50.228;18.936;2023-04-15T11:39:55;2.30;;;2.10;;
40116;SDS011;25829;50.228;18.936;2023-04-15T11:43:48;2.20;;;1.67;;
40116;SDS011;25829;50.228;18.936;2023-04-15T11:46:31;1.80;;;1.70;;
40116;SDS011;25829;50.228;18.936;2023-04-15T11:49:32;2.90;;;2.08;;
40116;SDS011;25829;50.228;18.936;2023-04-15T11:52:34;2.03;;;1.83;;
40116;SDS011;25829;50.228;18.936;2023-04-15T11:55:48;1.92;;;1.73;;
40116;SDS011;25829;50.228;18.936;2023-04-15T11:59:00;2.22;;;2.03;;
40116;SDS011;25829;50.228;18.936;2023-04-15T12:02:10;2.13;;;1.90;;
40116;SDS011;25829;50.228;18.936;2023-04-15T12:05:14;2.60;;;2.17;;
40116;SDS011;25829;50.228;18.936;2023-04-15T12:08:15;2.22;;;2.03;;
40116;SDS011;25829;50.228;18.936;2023-04-15T12:11:16;2.50;;;2.30;;
40116;SDS011;25829;50.228;18.936;2023-04-15T12:17:30;2.20;;;2.00;;
40116;SDS011;25829;50.228;18.936;2023-04-15T12:20:42;3.00;;;2.05;;
40116;SDS011;25829;50.228;18.936;2023-04-15T12:23:47;1.92;;;1.73;;
40116;SDS011;25829;50.228;18.936;2023-04-15T12:26:52;17.80;;;10.90;;
40116;SDS011;25829;50.228;18.936;2023-04-15T12:30:02;4.47;;;3.80;;
40116;SDS011;25829;50.228;18.936;2023-04-15T12:33:04;2.17;;;1.98;;
40116;SDS011;25829;50.228;18.936;2023-04-15T12:36:08;2.72;;;2.53;;
40116;SDS011;25829;50.228;18.936;2023-04-15T12:39:23;2.33;;;2.13;;
40116;SDS011;25829;50.228;18.936;2023-04-15T12:42:28;3.30;;;2.10;;
40116;SDS011;25829;50.228;18.936;2023-04-15T12:45:28;2.50;;;2.22;;
40116;SDS011;25829;50.228;18.936;2023-04-15T12:48:29;2.08;;;1.95;;
40116;SDS011;25829;50.228;18.936;2023-04-15T12:51:30;2.50;;;2.30;;
40116;SDS011;25829;50.228;18.936;2023-04-15T12:54:31;2.42;;;2.10;;
40116;SDS011;25829;50.228;18.936;2023-04-15T12:57:32;2.50;;;2.30;;
40116;SDS011;25829;50.228;18.936;2023-04-15T13:00:33;2.58;;;2.20;;
40116;SDS011;25829;50.228;18.936;2023-04-15T13:03:34;5.43;;;2.70;;
40116;SDS011;25829;50.228;18.936;2023-04-15T13:06:35;3.67;;;2.47;;
40116;SDS011;25829;50.228;18.936;2023-04-15T13:09:49;2.50;;;2.20;;
40116;SDS011;25829;50.228;18.936;2023-04-15T13:12:53;4.05;;;2.30;;
40116;SDS011;25829;50.228;18.936;2023-04-15T13:15:55;3.40;;;2.15;;
40116;SDS011;25829;50.228;18.936;2023-04-15T13:18:57;4.03;;;2.20;;
40116;SDS011;25829;50.228;18.936;2023-04-15T13:21:59;8.88;;;3.13;;
40116;SDS011;25829;50.228;18.936;2023-04-15T13:24:59;3.05;;;2.60;;
40116;SDS011;25829;50.228;18.936;2023-04-15T13:28:00;3.80;;;2.78;;
40116;SDS011;25829;50.228;18.936;2023-04-15T13:31:05;3.67;;;2.33;;
40116;SDS011;25829;50.228;18.936;2023-04-15T13:34:05;3.78;;;2.65;;
40116;SDS011;25829;50.228;18.936;2023-04-15T13:37:07;2.85;;;2.38;;
40116;SDS011;25829;50.228;18.936;2023-04-15T13:40:22;2.33;;;2.08;;
40116;SDS011;25829;50.228;18.936;2023-04-15T13:43:41;4.88;;;2.65;;
40116;SDS011;25829;50.228;18.936;2023-04-15T13:46:41;3.55;;;2.30;;
40116;SDS011;25829;50.228;18.936;2023-04-15T13:49:54;3.67;;;2.28;;
40116;SDS011;25829;50.228;18.936;2023-04-15T13:53:05;2.45;;;2.22;;
40116;SDS011;25829;50.228;18.936;2023-04-15T13:56:06;2.42;;;2.22;;
40116;SDS011;25829;50.228;18.936;2023-04-15T13:59:08;2.85;;;2.53;;
40116;SDS011;25829;50.228;18.936;2023-04-15T14:02:11;2.70;;;2.10;;
40116;SDS011;25829;50.228;18.936;2023-04-15T14:05:13;2.72;;;2.33;;
40116;SDS011;25829;50.228;18.936;2023-04-15T14:08:15;2.67;;;2.38;;
40116;SDS011;25829;50.228;18.936;2023-04-15T14:11:15;4.43;;;2.60;;
40116;SDS011;25829;50.228;18.936;2023-04-15T14:14:16;2.88;;;2.47;;
40116;SDS011;25829;50.228;18.936;2023-04-15T14:17:19;3.45;;;2.60;;
40116;SDS011;25829;50.228;18.936;2023-04-15T14:20:22;4.07;;;2.60;;
40116;SDS011;25829;50.228;18.936;2023-04-15T14:23:24;4.75;;;2.40;;
40116;SDS011;25829;50.228;18.936;2023-04-15T14:26:25;4.68;;;2.85;;
40116;SDS011;25829;50.228;18.936;2023-04-15T14:29:30;3.83;;;2.83;;
40116;SDS011;25829;50.228;18.936;2023-04-15T14:32:30;3.30;;;2.58;;
40116;SDS011;25829;50.228;18.936;2023-04-15T14:35:31;3.72;;;2.80;;
40116;SDS011;25829;50.228;18.936;2023-04-15T14:38:35;3.38;;;3.05;;
40116;SDS011;25829;50.228;18.936;2023-04-15T14:41:39;3.20;;;2.80;;
40116;SDS011;25829;50.228;18.936;2023-04-15T14:44:40;5.13;;;3.05;;
40116;SDS011;25829;50.228;18.936;2023-04-15T14:47:40;3.22;;;2.78;;
40116;SDS011;25829;50.228;18.936;2023-04-15T14:50:41;2.75;;;2.50;;
40116;SDS011;25829;50.228;18.936;2023-04-15T14:53:44;4.00;;;2.50;;
40116;SDS011;25829;50.228;18.936;2023-04-15T14:56:45;4.07;;;2.70;;
40116;SDS011;25829;50.228;18.936;2023-04-15T14:59:46;5.15;;;2.72;;
40116;SDS011;25829;50.228;18.936;2023-04-15T15:02:46;2.67;;;2.40;;
40116;SDS011;25829;50.228;18.936;2023-04-15T15:05:47;9.80;;;3.47;;
40116;SDS011;25829;50.228;18.936;2023-04-15T15:08:48;3.67;;;2.60;;
40116;SDS011;25829;50.228;18.936;2023-04-15T15:11:49;3.17;;;2.28;;
40116;SDS011;25829;50.228;18.936;2023-04-15T15:14:51;3.03;;;2.25;;
40116;SDS011;25829;50.228;18.936;2023-04-15T15:17:52;2.78;;;2.40;;
40116;SDS011;25829;50.228;18.936;2023-04-15T15:20:53;2.67;;;2.30;;
40116;SDS011;25829;50.228;18.936;2023-04-15T15:23:54;3.92;;;2.90;;
40116;SDS011;25829;50.228;18.936;2023-04-15T15:26:54;3.05;;;2.20;;
40116;SDS011;25829;50.228;18.936;2023-04-15T15:29:57;2.47;;;2.28;;
40116;SDS011;25829;50.228;18.936;2023-04-15T15:32:58;3.83;;;2.83;;
40116;SDS011;25829;50.228;18.936;2023-04-15T15:35:59;3.03;;;2.40;;
40116;SDS011;25829;50.228;18.936;2023-04-15T15:39:00;3.53;;;2.42;;
40116;SDS011;25829;50.228;18.936;2023-04-15T15:42:01;4.63;;;3.45;;
40116;SDS011;25829;50.228;18.936;2023-04-15T15:45:02;5.40;;;3.25;;
40116;SDS011;25829;50.228;18.936;2023-04-15T15:48:04;4.75;;;3.40;;
40116;SDS011;25829;50.228;18.936;2023-04-15T15:51:05;3.53;;;2.72;;
40116;SDS011;25829;50.228;18.936;2023-04-15T15:54:06;5.63;;;3.58;;
40116;SDS011;25829;50.228;18.936;2023-04-15T15:57:07;3.10;;;2.65;;
40116;SDS011;25829;50.228;18.936;2023-04-15T16:00:08;4.28;;;3.20;;
40116;SDS011;25829;50.228;18.936;2023-04-15T16:03:09;4.63;;;3.17;;
40116;SDS011;25829;50.228;18.936;2023-04-15T16:06:10;5.18;;;3.28;;
40116;SDS011;25829;50.228;18.936;2023-04-15T16:09:11;8.40;;;4.05;;
40116;SDS011;25829;50.228;18.936;2023-04-15T16:12:12;10.40;;;7.35;;
40116;SDS011;25829;50.228;18.936;2023-04-15T16:15:13;8.07;;;5.30;;
40116;SDS011;25829;50.228;18.936;2023-04-15T16:18:15;6.65;;;4.90;;
40116;SDS011;25829;50.228;18.936;2023-04-15T16:21:16;7.60;;;4.43;;
40116;SDS011;25829;50.228;18.936;2023-04-15T16:24:18;5.45;;;4.32;;
40116;SDS011;25829;50.228;18.936;2023-04-15T16:27:19;6.40;;;4.55;;
40116;SDS011;25829;50.228;18.936;2023-04-15T16:30:20;7.63;;;5.28;;
40116;SDS011;25829;50.228;18.936;2023-04-15T16:33:21;8.00;;;5.90;;
40116;SDS011;25829;50.228;18.936;2023-04-15T16:36:22;8.57;;;5.65;;
40116;SDS011;25829;50.228;18.936;2023-04-15T16:39:23;9.00;;;6.18;;
40116;SDS011;25829;50.228;18.936;2023-04-15T16:42:23;9.40;;;6.57;;
40116;SDS011;25829;50.228;18.936;2023-04-15T16:45:24;9.00;;;5.78;;
40116;SDS011;25829;50.228;18.936;2023-04-15T16:48:25;9.65;;;6.50;;
40116;SDS011;25829;50.228;18.936;2023-04-15T16:51:27;7.65;;;5.47;;
40116;SDS011;25829;50.228;18.936;2023-04-15T16:54:29;7.07;;;5.05;;
40116;SDS011;25829;50.228;18.936;2023-04-15T16:57:32;7.13;;;5.38;;
40116;SDS011;25829;50.228;18.936;2023-04-15T17:00:33;8.65;;;5.85;;
40116;SDS011;25829;50.228;18.936;2023-04-15T17:03:35;9.70;;;6.50;;
40116;SDS011;25829;50.228;18.936;2023-04-15T17:06:37;8.13;;;5.90;;
40116;SDS011;25829;50.228;18.936;2023-04-15T17:09:38;9.90;;;5.57;;
40116;SDS011;25829;50.228;18.936;2023-04-15T17:12:40;8.00;;;5.20;;
40116;SDS011;25829;50.228;18.936;2023-04-15T17:15:41;6.45;;;5.20;;
40116;SDS011;25829;50.228;18.936;2023-04-15T17:18:41;6.90;;;5.10;;
40116;SDS011;25829;50.228;18.936;2023-04-15T17:21:42;6.83;;;4.57;;
40116;SDS011;25829;50.228;18.936;2023-04-15T17:24:43;4.70;;;4.20;;
40116;SDS011;25829;50.228;18.936;2023-04-15T17:27:46;7.77;;;5.30;;
40116;SDS011;25829;50.228;18.936;2023-04-15T17:30:47;7.13;;;4.97;;
40116;SDS011;25829;50.228;18.936;2023-04-15T17:33:48;5.07;;;4.33;;
40116;SDS011;25829;50.228;18.936;2023-04-15T17:36:49;6.47;;;4.93;;
40116;SDS011;25829;50.228;18.936;2023-04-15T17:39:50;7.13;;;4.87;;
40116;SDS011;25829;50.228;18.936;2023-04-15T17:42:51;8.57;;;5.47;;
40116;SDS011;25829;50.228;18.936;2023-04-15T17:45:52;7.13;;;5.60;;
40116;SDS011;25829;50.228;18.936;2023-04-15T17:48:53;8.70;;;5.60;;
40116;SDS011;25829;50.228;18.936;2023-04-15T17:51:54;11.47;;;5.57;;
40116;SDS011;25829;50.228;18.936;2023-04-15T17:54:55;7.37;;;6.03;;
40116;SDS011;25829;50.228;18.936;2023-04-15T17:57:55;10.50;;;6.30;;
40116;SDS011;25829;50.228;18.936;2023-04-15T18:01:05;8.77;;;6.00;;
40116;SDS011;25829;50.228;18.936;2023-04-15T18:04:06;8.43;;;5.77;;
40116;SDS011;25829;50.228;18.936;2023-04-15T18:07:06;9.50;;;6.57;;
40116;SDS011;25829;50.228;18.936;2023-04-15T18:10:16;11.53;;;6.57;;
40116;SDS011;25829;50.228;18.936;2023-04-15T18:14:14;7.27;;;6.20;;
40116;SDS011;25829;50.228;18.936;2023-04-15T18:17:15;14.90;;;9.47;;
40116;SDS011;25829;50.228;18.936;2023-04-15T18:20:31;11.90;;;8.43;;
40116;SDS011;25829;50.228;18.936;2023-04-15T18:23:32;10.77;;;6.73;;
40116;SDS011;25829;50.228;18.936;2023-04-15T18:26:36;10.60;;;6.73;;
40116;SDS011;25829;50.228;18.936;2023-04-15T18:29:40;12.27;;;6.63;;
40116;SDS011;25829;50.228;18.936;2023-04-15T18:32:43;12.23;;;7.73;;
40116;SDS011;25829;50.228;18.936;2023-04-15T18:35:43;9.33;;;6.87;;
40116;SDS011;25829;50.228;18.936;2023-04-15T18:38:44;10.50;;;6.10;;
40116;SDS011;25829;50.228;18.936;2023-04-15T18:41:45;8.03;;;6.17;;
40116;SDS011;25829;50.228;18.936;2023-04-15T18:44:47;10.37;;;7.23;;